createdAt,value
2019-01-25T00:00:44.459Z,67.50
2019-01-25T00:01:44.461Z,45.00
2019-01-25T00:02:44.446Z,247.50
2019-01-25T00:03:44.477Z,202.50
2019-01-25T00:04:44.506Z,270.00
2019-01-25T00:05:44.514Z,180.00
2019-01-25T00:06:44.418Z,292.50
2019-01-25T00:07:44.505Z,292.50
2019-01-25T00:08:44.514Z,270.00
2019-01-25T00:09:44.483Z,202.50
2019-01-25T00:10:44.480Z,292.50
2019-01-25T00:11:44.500Z,292.50
2019-01-25T00:12:44.550Z,270.00
2019-01-25T00:13:44.537Z,292.50
2019-01-25T00:14:44.484Z,292.50
2019-01-25T00:15:44.527Z,292.50
2019-01-25T00:16:44.473Z,270.00
2019-01-25T00:17:44.484Z,270.00
2019-01-25T00:18:44.426Z,292.50
2019-01-25T00:19:44.524Z,270.00
2019-01-25T00:20:44.458Z,292.50
2019-01-25T00:21:44.524Z,270.00
2019-01-25T00:22:44.454Z,292.50
2019-01-25T00:23:44.568Z,270.00
2019-01-25T00:24:44.462Z,247.50
2019-01-25T00:25:44.466Z,247.50
2019-01-25T00:26:44.529Z,315.00
2019-01-25T00:27:44.458Z,270.00
2019-01-25T00:28:44.587Z,270.00
2019-01-25T00:29:44.472Z,270.00
2019-01-25T00:30:44.531Z,292.50
2019-01-25T00:31:44.474Z,292.50
2019-01-25T00:32:44.530Z,270.00
2019-01-25T00:33:44.483Z,292.50
2019-01-25T00:34:44.538Z,315.00
2019-01-25T00:35:44.537Z,247.50
2019-01-25T00:36:44.476Z,292.50
2019-01-25T00:37:44.540Z,225.00
2019-01-25T00:38:44.475Z,315.00
2019-01-25T00:39:44.445Z,225.00
2019-01-25T00:40:44.447Z,292.50
2019-01-25T00:41:44.523Z,225.00
2019-01-25T00:42:44.491Z,270.00
2019-01-25T00:43:44.450Z,247.50
2019-01-25T00:44:44.508Z,202.50
2019-01-25T00:45:44.446Z,202.50
2019-01-25T00:46:44.428Z,315.00
2019-01-25T00:47:44.511Z,225.00
2019-01-25T00:48:44.455Z,315.00
2019-01-25T00:49:44.570Z,292.50
2019-01-25T00:50:44.479Z,337.50
2019-01-25T00:51:44.549Z,337.50
2019-01-25T00:52:44.552Z,270.00
2019-01-25T00:53:44.547Z,315.00
2019-01-25T00:54:44.486Z,67.50
2019-01-25T00:55:44.548Z,22.50
2019-01-25T00:56:44.484Z,22.50
2019-01-25T00:57:44.489Z,22.50
2019-01-25T00:58:44.557Z,0.00
2019-01-25T00:59:44.510Z,67.50
2019-01-25T01:00:44.454Z,225.00
2019-01-25T01:01:44.551Z,337.50
2019-01-25T01:02:44.575Z,337.50
2019-01-25T01:03:44.582Z,337.50
2019-01-25T01:04:44.513Z,292.50
2019-01-25T01:05:44.509Z,292.50
2019-01-25T01:06:44.463Z,292.50
2019-01-25T01:07:44.519Z,315.00
2019-01-25T01:08:44.498Z,292.50
2019-01-25T01:09:44.490Z,337.50
2019-01-25T01:10:44.563Z,292.50
2019-01-25T01:11:44.500Z,225.00
2019-01-25T01:12:44.560Z,270.00
2019-01-25T01:13:44.494Z,292.50
2019-01-25T01:14:44.565Z,292.50
2019-01-25T01:15:44.494Z,292.50
2019-01-25T01:16:44.564Z,292.50
2019-01-25T01:17:44.501Z,292.50
2019-01-25T01:18:44.574Z,292.50
2019-01-25T01:19:44.501Z,292.50
2019-01-25T01:20:44.566Z,315.00
2019-01-25T01:21:44.503Z,202.50
2019-01-25T01:22:44.455Z,315.00
2019-01-25T01:23:44.511Z,270.00
2019-01-25T01:24:44.572Z,270.00
2019-01-25T01:25:44.504Z,112.50
2019-01-25T01:26:44.578Z,225.00
2019-01-25T01:27:44.558Z,225.00
2019-01-25T01:28:44.574Z,292.50
2019-01-25T01:29:44.588Z,315.00
2019-01-25T01:30:44.541Z,180.00
2019-01-25T01:31:44.603Z,180.00
2019-01-25T01:32:44.659Z,180.00
2019-01-25T01:33:44.579Z,202.50
2019-01-25T01:34:44.483Z,67.50
2019-01-25T01:35:44.523Z,270.00
2019-01-25T01:36:44.535Z,292.50
2019-01-25T01:37:44.476Z,270.00
2019-01-25T01:38:44.599Z,270.00
2019-01-25T01:39:44.596Z,292.50
2019-01-25T01:40:44.530Z,270.00
2019-01-25T01:41:44.486Z,292.50
2019-01-25T01:42:44.542Z,247.50
2019-01-25T01:43:44.600Z,270.00
2019-01-25T01:44:44.550Z,315.00
2019-01-25T01:45:44.603Z,292.50
2019-01-25T01:46:44.588Z,270.00
2019-01-25T01:47:44.602Z,247.50
2019-01-25T01:48:44.598Z,315.00
2019-01-25T01:49:44.473Z,202.50
2019-01-25T01:50:44.555Z,180.00
2019-01-25T01:51:44.582Z,180.00
2019-01-25T01:52:44.512Z,180.00
2019-01-25T01:53:44.586Z,247.50
2019-01-25T01:54:44.478Z,112.50
2019-01-25T01:55:44.587Z,157.50
2019-01-25T01:56:44.477Z,202.50
2019-01-25T01:57:44.563Z,247.50
2019-01-25T01:58:44.520Z,225.00
2019-01-25T01:59:44.613Z,247.50
2019-01-25T02:00:44.534Z,270.00
2019-01-25T02:01:44.606Z,315.00
2019-01-25T02:02:44.619Z,315.00
2019-01-25T02:03:44.611Z,247.50
2019-01-25T02:04:44.548Z,292.50
2019-01-25T02:05:44.569Z,202.50
2019-01-25T02:06:44.540Z,157.50
2019-01-25T02:07:44.555Z,157.50
2019-01-25T02:08:44.616Z,112.50
2019-01-25T02:09:44.631Z,45.00
2019-01-25T02:10:44.575Z,45.00
2019-01-25T02:11:44.546Z,22.50
2019-01-25T02:12:44.555Z,22.50
2019-01-25T02:13:44.616Z,22.50
2019-01-25T02:14:44.544Z,45.00
2019-01-25T02:15:44.625Z,22.50
2019-01-25T02:16:44.619Z,112.50
2019-01-25T02:17:44.561Z,90.00
2019-01-25T02:18:44.545Z,135.00
2019-01-25T02:19:44.567Z,67.50
2019-01-25T02:20:44.520Z,157.50
2019-01-25T02:21:44.553Z,45.00
2019-01-25T02:22:44.584Z,202.50
2019-01-25T02:23:44.580Z,22.50
2019-01-25T02:24:44.627Z,22.50
2019-01-25T02:25:44.567Z,0.00
2019-01-25T02:26:44.553Z,22.50
2019-01-25T02:27:44.562Z,90.00
2019-01-25T02:28:44.554Z,180.00
2019-01-25T02:29:44.570Z,180.00
2019-01-25T02:30:44.522Z,180.00
2019-01-25T02:31:44.571Z,180.00
2019-01-25T02:32:44.634Z,247.50
2019-01-25T02:33:44.584Z,270.00
2019-01-25T02:34:44.559Z,225.00
2019-01-25T02:35:44.585Z,180.00
2019-01-25T02:36:44.636Z,157.50
2019-01-25T02:37:44.602Z,180.00
2019-01-25T02:38:44.642Z,202.50
2019-01-25T02:39:44.574Z,180.00
2019-01-25T02:40:44.622Z,202.50
2019-01-25T02:41:44.615Z,225.00
2019-01-25T02:42:44.551Z,225.00
2019-01-25T02:43:44.579Z,202.50
2019-01-25T02:44:44.557Z,157.50
2019-01-25T02:45:44.623Z,202.50
2019-01-25T02:46:44.626Z,180.00
2019-01-25T02:47:44.530Z,225.00
2019-01-25T02:48:44.562Z,180.00
2019-01-25T02:49:44.588Z,202.50
2019-01-25T02:50:44.581Z,202.50
2019-01-25T02:51:44.575Z,202.50
2019-01-25T02:52:44.574Z,202.50
2019-01-25T02:53:44.580Z,202.50
2019-01-25T02:54:44.587Z,202.50
2019-01-25T02:55:44.651Z,180.00
2019-01-25T02:56:44.595Z,180.00
2019-01-25T02:57:44.644Z,180.00
2019-01-25T02:58:44.652Z,157.50
2019-01-25T02:59:44.618Z,225.00
2019-01-25T03:00:44.654Z,270.00
2019-01-25T03:01:44.592Z,247.50
2019-01-25T03:02:44.578Z,247.50
2019-01-25T03:03:44.642Z,135.00
2019-01-25T03:04:44.708Z,135.00
2019-01-25T03:05:44.593Z,135.00
2019-01-25T03:06:44.614Z,67.50
2019-01-25T03:07:44.674Z,112.50
2019-01-25T03:08:44.665Z,157.50
2019-01-25T03:09:44.585Z,180.00
2019-01-25T03:10:47.137Z,180.00
2019-01-25T03:11:44.583Z,157.50
2019-01-25T03:12:44.645Z,90.00
2019-01-25T03:13:44.583Z,157.50
2019-01-25T03:14:44.581Z,180.00
2019-01-25T03:15:44.646Z,247.50
2019-01-25T03:16:44.578Z,292.50
2019-01-25T03:17:44.649Z,270.00
2019-01-25T03:18:44.588Z,225.00
2019-01-25T03:19:44.664Z,292.50
2019-01-25T03:20:44.684Z,292.50
2019-01-25T03:21:44.612Z,225.00
2019-01-25T03:22:44.680Z,202.50
2019-01-25T03:23:44.619Z,202.50
2019-01-25T03:24:44.557Z,270.00
2019-01-25T03:25:44.631Z,202.50
2019-01-25T03:26:44.635Z,157.50
2019-01-25T03:27:44.592Z,157.50
2019-01-25T03:28:44.676Z,180.00
2019-01-25T03:29:44.587Z,202.50
2019-01-25T03:30:44.661Z,202.50
2019-01-25T03:31:44.600Z,180.00
2019-01-25T03:32:44.669Z,180.00
2019-01-25T03:33:44.594Z,270.00
2019-01-25T03:34:44.593Z,157.50
2019-01-25T03:35:44.665Z,112.50
2019-01-25T03:36:44.661Z,202.50
2019-01-25T03:37:44.599Z,202.50
2019-01-25T03:38:44.665Z,202.50
2019-01-25T03:39:44.669Z,180.00
2019-01-25T03:40:44.602Z,180.00
2019-01-25T03:41:44.670Z,202.50
2019-01-25T03:42:44.596Z,225.00
2019-01-25T03:43:44.668Z,247.50
2019-01-25T03:44:44.608Z,270.00
2019-01-25T03:45:44.673Z,157.50
2019-01-25T03:46:44.669Z,202.50
2019-01-25T03:47:44.618Z,180.00
2019-01-25T03:48:44.671Z,247.50
2019-01-25T03:49:44.608Z,292.50
2019-01-25T03:50:49.077Z,270.00
2019-01-25T03:51:44.672Z,270.00
2019-01-25T03:52:44.638Z,292.50
2019-01-25T03:53:44.677Z,292.50
2019-01-25T03:54:44.616Z,292.50
2019-01-25T03:55:44.614Z,225.00
2019-01-25T03:56:44.618Z,180.00
2019-01-25T03:57:44.622Z,180.00
2019-01-25T03:58:44.685Z,180.00
2019-01-25T03:59:44.679Z,247.50
2019-01-25T04:00:44.614Z,270.00
2019-01-25T04:01:44.679Z,292.50
2019-01-25T04:02:44.618Z,225.00
2019-01-25T04:03:44.681Z,292.50
2019-01-25T04:04:44.687Z,202.50
2019-01-25T04:05:44.690Z,180.00
2019-01-25T04:06:44.620Z,202.50
2019-01-25T04:07:44.688Z,202.50
2019-01-25T04:08:44.632Z,225.00
2019-01-25T04:09:44.705Z,180.00
2019-01-25T04:10:44.709Z,135.00
2019-01-25T04:11:44.702Z,180.00
2019-01-25T04:12:44.827Z,180.00
2019-01-25T04:13:44.706Z,180.00
2019-01-25T04:14:44.662Z,157.50
2019-01-25T04:15:44.672Z,180.00
2019-01-25T04:16:44.631Z,202.50
2019-01-25T04:17:44.646Z,202.50
2019-01-25T04:18:44.644Z,202.50
2019-01-25T04:19:44.645Z,180.00
2019-01-25T04:20:44.714Z,225.00
2019-01-25T04:21:44.707Z,270.00
2019-01-25T04:22:44.712Z,157.50
2019-01-25T04:23:44.716Z,157.50
2019-01-25T04:24:44.656Z,180.00
2019-01-25T04:25:44.695Z,180.00
2019-01-25T04:26:44.637Z,202.50
2019-01-25T04:27:44.722Z,180.00
2019-01-25T04:28:44.644Z,180.00
2019-01-25T04:29:44.657Z,157.50
2019-01-25T04:30:44.791Z,112.50
2019-01-25T04:31:44.661Z,22.50
2019-01-25T04:32:44.605Z,67.50
2019-01-25T04:33:44.646Z,22.50
2019-01-25T04:34:44.690Z,22.50
2019-01-25T04:35:44.683Z,22.50
2019-01-25T04:36:44.656Z,22.50
2019-01-25T04:37:44.648Z,270.00
2019-01-25T04:38:44.674Z,0.00
2019-01-25T04:39:44.707Z,337.50
2019-01-25T04:40:44.645Z,337.50
2019-01-25T04:41:44.715Z,225.00
2019-01-25T04:42:44.643Z,247.50
2019-01-25T04:43:44.719Z,90.00
2019-01-25T04:44:44.644Z,315.00
2019-01-25T04:45:44.646Z,22.50
2019-01-25T04:46:44.717Z,45.00
2019-01-25T04:47:44.653Z,0.00
2019-01-25T04:48:44.713Z,67.50
2019-01-25T04:49:44.670Z,90.00
2019-01-25T04:50:44.650Z,45.00
2019-01-25T04:51:44.607Z,22.50
2019-01-25T04:52:44.623Z,157.50
2019-01-25T04:53:44.624Z,180.00
2019-01-25T04:54:44.716Z,180.00
2019-01-25T04:55:44.594Z,180.00
2019-01-25T04:56:44.603Z,157.50
2019-01-25T04:57:44.704Z,157.50
2019-01-25T04:58:44.605Z,247.50
2019-01-25T04:59:44.747Z,180.00
2019-01-25T05:00:44.741Z,180.00
2019-01-25T05:01:44.700Z,90.00
2019-01-25T05:02:44.743Z,157.50
2019-01-25T05:03:44.752Z,112.50
2019-01-25T05:04:44.754Z,180.00
2019-01-25T05:05:44.744Z,270.00
2019-01-25T05:06:44.679Z,225.00
2019-01-25T05:07:44.670Z,157.50
2019-01-25T05:08:44.747Z,157.50
2019-01-25T05:09:44.663Z,157.50
2019-01-25T05:10:44.661Z,180.00
2019-01-25T05:11:44.662Z,225.00
2019-01-25T05:12:48.973Z,180.00
2019-01-25T05:13:44.664Z,157.50
2019-01-25T05:14:44.731Z,157.50
2019-01-25T05:15:44.741Z,157.50
2019-01-25T05:16:44.672Z,180.00
2019-01-25T05:17:44.736Z,135.00
2019-01-25T05:18:44.793Z,180.00
2019-01-25T05:19:44.741Z,202.50
2019-01-25T05:20:44.666Z,202.50
2019-01-25T05:21:44.674Z,292.50
2019-01-25T05:22:44.667Z,135.00
2019-01-25T05:23:44.735Z,157.50
2019-01-25T05:24:44.674Z,157.50
2019-01-25T05:25:44.747Z,180.00
2019-01-25T05:26:44.668Z,157.50
2019-01-25T05:27:44.744Z,157.50
2019-01-25T05:28:44.676Z,157.50
2019-01-25T05:29:44.750Z,67.50
2019-01-25T05:30:44.627Z,112.50
2019-01-25T05:31:44.678Z,135.00
2019-01-25T05:32:44.678Z,135.00
2019-01-25T05:33:44.672Z,135.00
2019-01-25T05:34:44.647Z,90.00
2019-01-25T05:35:44.697Z,90.00
2019-01-25T05:36:44.717Z,112.50
2019-01-25T05:37:44.632Z,90.00
2019-01-25T05:38:44.671Z,112.50
2019-01-25T05:39:44.751Z,90.00
2019-01-25T05:40:44.751Z,90.00
2019-01-25T05:41:44.649Z,90.00
2019-01-25T05:42:44.694Z,67.50
2019-01-25T05:43:44.764Z,112.50
2019-01-25T05:44:44.695Z,135.00
2019-01-25T05:45:44.767Z,112.50
2019-01-25T05:46:44.730Z,90.00
2019-01-25T05:47:44.712Z,112.50
2019-01-25T05:48:44.699Z,90.00
2019-01-25T05:49:44.792Z,157.50
2019-01-25T05:50:44.686Z,112.50
2019-01-25T05:51:44.693Z,90.00
2019-01-25T05:52:44.761Z,112.50
2019-01-25T05:53:44.686Z,225.00
2019-01-25T05:54:44.758Z,157.50
2019-01-25T05:55:44.693Z,135.00
2019-01-25T05:56:44.763Z,135.00
2019-01-25T05:57:44.697Z,135.00
2019-01-25T05:58:44.762Z,157.50
2019-01-25T05:59:44.694Z,135.00
2019-01-25T06:00:44.712Z,157.50
2019-01-25T06:01:44.686Z,135.00
2019-01-25T06:02:44.767Z,112.50
2019-01-25T06:03:44.751Z,90.00
2019-01-25T06:04:44.644Z,90.00
2019-01-25T06:05:44.757Z,90.00
2019-01-25T06:06:44.668Z,135.00
2019-01-25T06:07:44.720Z,90.00
2019-01-25T06:08:44.773Z,90.00
2019-01-25T06:09:44.651Z,112.50
2019-01-25T06:10:44.726Z,202.50
2019-01-25T06:11:44.795Z,202.50
2019-01-25T06:12:44.815Z,180.00
2019-01-25T06:13:44.813Z,202.50
2019-01-25T06:14:44.803Z,225.00
2019-01-25T06:15:44.816Z,202.50
2019-01-25T06:16:44.837Z,157.50
2019-01-25T06:17:44.713Z,180.00
2019-01-25T06:18:44.714Z,157.50
2019-01-25T06:19:44.779Z,157.50
2019-01-25T06:20:44.735Z,112.50
2019-01-25T06:21:44.795Z,135.00
2019-01-25T06:22:44.735Z,90.00
2019-01-25T06:23:44.677Z,90.00
2019-01-25T06:24:44.720Z,67.50
2019-01-25T06:25:44.755Z,90.00
2019-01-25T06:26:44.734Z,112.50
2019-01-25T06:27:44.732Z,157.50
2019-01-25T06:28:44.729Z,135.00
2019-01-25T06:29:44.819Z,135.00
2019-01-25T06:30:44.684Z,112.50
2019-01-25T06:31:44.800Z,112.50
2019-01-25T06:32:44.814Z,67.50
2019-01-25T06:33:44.744Z,90.00
2019-01-25T06:34:44.755Z,112.50
2019-01-25T06:35:44.759Z,90.00
2019-01-25T06:36:44.802Z,67.50
2019-01-25T06:37:44.809Z,180.00
2019-01-25T06:38:44.749Z,157.50
2019-01-25T06:39:44.816Z,90.00
2019-01-25T06:40:44.799Z,67.50
2019-01-25T06:41:44.744Z,112.50
2019-01-25T06:42:44.805Z,157.50
2019-01-25T06:43:44.730Z,90.00
2019-01-25T06:44:44.735Z,135.00
2019-01-25T06:45:44.808Z,157.50
2019-01-25T06:46:44.756Z,112.50
2019-01-25T06:47:44.764Z,67.50
2019-01-25T06:48:44.734Z,157.50
2019-01-25T06:49:44.750Z,157.50
2019-01-25T06:50:44.739Z,157.50
2019-01-25T06:51:44.812Z,90.00
2019-01-25T06:52:44.812Z,90.00
2019-01-25T06:53:44.832Z,157.50
2019-01-25T06:54:44.817Z,157.50
2019-01-25T06:55:44.751Z,157.50
2019-01-25T06:56:44.813Z,157.50
2019-01-25T06:57:44.820Z,157.50
2019-01-25T06:58:44.750Z,135.00
2019-01-25T06:59:44.759Z,67.50
2019-01-25T07:00:44.739Z,135.00
2019-01-25T07:01:44.806Z,67.50
2019-01-25T07:02:44.789Z,90.00
2019-01-25T07:03:44.807Z,180.00
2019-01-25T07:04:44.736Z,135.00
2019-01-25T07:05:44.737Z,135.00
2019-01-25T07:06:44.813Z,157.50
2019-01-25T07:07:44.748Z,157.50
2019-01-25T07:08:44.813Z,90.00
2019-01-25T07:09:44.738Z,90.00
2019-01-25T07:10:44.734Z,90.00
2019-01-25T07:11:51.262Z,135.00
2019-01-25T07:12:44.840Z,90.00
2019-01-25T07:13:44.764Z,90.00
2019-01-25T07:14:44.775Z,90.00
2019-01-25T07:15:44.848Z,90.00
2019-01-25T07:16:44.786Z,112.50
2019-01-25T07:17:44.793Z,90.00
2019-01-25T07:18:44.882Z,90.00
2019-01-25T07:19:44.845Z,135.00
2019-01-25T07:20:44.840Z,90.00
2019-01-25T07:21:44.742Z,90.00
2019-01-25T07:22:44.839Z,135.00
2019-01-25T07:23:44.719Z,90.00
2019-01-25T07:24:44.840Z,157.50
2019-01-25T07:25:44.775Z,90.00
2019-01-25T07:26:44.806Z,22.50
2019-01-25T07:27:44.762Z,45.00
2019-01-25T07:28:44.849Z,180.00
2019-01-25T07:29:44.767Z,157.50
2019-01-25T07:30:44.870Z,157.50
2019-01-25T07:31:46.279Z,112.50
2019-01-25T07:32:44.844Z,90.00
2019-01-25T07:33:44.836Z,135.00
2019-01-25T07:34:44.828Z,67.50
2019-01-25T07:35:44.855Z,135.00
2019-01-25T07:36:44.732Z,90.00
2019-01-25T07:37:44.929Z,90.00
2019-01-25T07:38:44.804Z,90.00
2019-01-25T07:39:44.789Z,90.00
2019-01-25T07:40:44.845Z,112.50
2019-01-25T07:41:44.741Z,135.00
2019-01-25T07:42:44.841Z,90.00
2019-01-25T07:43:44.857Z,112.50
2019-01-25T07:44:44.848Z,157.50
2019-01-25T07:45:44.849Z,180.00
2019-01-25T07:46:44.855Z,157.50
2019-01-25T07:47:44.781Z,135.00
2019-01-25T07:48:44.789Z,90.00
2019-01-25T07:49:44.912Z,112.50
2019-01-25T07:50:44.872Z,112.50
2019-01-25T07:51:44.775Z,112.50
2019-01-25T07:52:44.863Z,90.00
2019-01-25T07:53:44.843Z,90.00
2019-01-25T07:54:44.778Z,67.50
2019-01-25T07:55:44.857Z,90.00
2019-01-25T07:56:44.830Z,135.00
2019-01-25T07:57:44.846Z,157.50
2019-01-25T07:58:44.803Z,135.00
2019-01-25T07:59:44.854Z,112.50
2019-01-25T08:00:44.847Z,157.50
2019-01-25T08:01:44.850Z,157.50
2019-01-25T08:02:44.818Z,135.00
2019-01-25T08:03:44.890Z,135.00
2019-01-25T08:04:44.789Z,112.50
2019-01-25T08:05:44.853Z,135.00
2019-01-25T08:06:44.794Z,157.50
2019-01-25T08:07:44.872Z,112.50
2019-01-25T08:08:44.782Z,90.00
2019-01-25T08:09:44.814Z,157.50
2019-01-25T08:10:44.878Z,112.50
2019-01-25T08:11:44.873Z,112.50
2019-01-25T08:12:44.922Z,112.50
2019-01-25T08:13:45.118Z,135.00
2019-01-25T08:14:44.873Z,157.50
2019-01-25T08:15:44.906Z,90.00
2019-01-25T08:16:44.797Z,157.50
2019-01-25T08:17:44.880Z,157.50
2019-01-25T08:18:44.875Z,135.00
2019-01-25T08:19:44.807Z,202.50
2019-01-25T08:20:44.761Z,202.50
2019-01-25T08:21:44.860Z,180.00
2019-01-25T08:22:44.932Z,180.00
2019-01-25T08:23:44.834Z,202.50
2019-01-25T08:24:44.806Z,180.00
2019-01-25T08:25:44.781Z,180.00
2019-01-25T08:26:44.794Z,180.00
2019-01-25T08:27:44.925Z,180.00
2019-01-25T08:28:44.863Z,180.00
2019-01-25T08:29:44.919Z,180.00
2019-01-25T08:30:44.817Z,180.00
2019-01-25T08:31:44.819Z,180.00
2019-01-25T08:32:44.882Z,157.50
2019-01-25T08:33:44.836Z,180.00
2019-01-25T08:34:44.917Z,157.50
2019-01-25T08:35:44.907Z,202.50
2019-01-25T08:36:44.839Z,180.00
2019-01-25T08:37:44.853Z,180.00
2019-01-25T08:38:44.813Z,180.00
2019-01-25T08:39:44.926Z,202.50
2019-01-25T08:40:44.878Z,202.50
2019-01-25T08:41:44.786Z,180.00
2019-01-25T08:42:44.922Z,202.50
2019-01-25T08:43:44.895Z,180.00
2019-01-25T08:44:44.876Z,202.50
2019-01-25T08:45:44.845Z,180.00
2019-01-25T08:46:44.805Z,180.00
2019-01-25T08:47:44.879Z,180.00
2019-01-25T08:48:44.900Z,202.50
2019-01-25T08:49:44.884Z,180.00
2019-01-25T08:50:44.787Z,180.00
2019-01-25T08:51:44.868Z,202.50
2019-01-25T08:52:44.840Z,180.00
2019-01-25T08:53:44.858Z,180.00
2019-01-25T08:54:44.881Z,180.00
2019-01-25T08:55:44.764Z,180.00
2019-01-25T08:56:44.829Z,180.00
2019-01-25T08:57:44.766Z,157.50
2019-01-25T08:58:44.892Z,157.50
2019-01-25T08:59:45.753Z,180.00
2019-01-25T09:00:44.888Z,202.50
2019-01-25T09:01:44.890Z,202.50
2019-01-25T09:03:44.815Z,157.50
2019-01-25T09:04:44.886Z,157.50
2019-01-25T09:05:44.887Z,112.50
2019-01-25T09:06:44.828Z,157.50
2019-01-25T09:07:44.890Z,157.50
2019-01-25T09:08:44.821Z,157.50
2019-01-25T09:09:44.896Z,157.50
2019-01-25T09:10:44.821Z,112.50
2019-01-25T09:11:44.897Z,157.50
2019-01-25T09:12:44.824Z,157.50
2019-01-25T09:13:44.820Z,157.50
2019-01-25T09:14:44.819Z,202.50
2019-01-25T09:15:44.897Z,180.00
2019-01-25T09:16:44.901Z,157.50
2019-01-25T09:17:44.850Z,202.50
2019-01-25T09:18:44.821Z,180.00
2019-01-25T09:19:44.831Z,180.00
2019-01-25T09:20:44.830Z,180.00
2019-01-25T09:21:44.914Z,180.00
2019-01-25T09:22:44.902Z,180.00
2019-01-25T09:23:44.903Z,180.00
2019-01-25T09:24:44.905Z,157.50
2019-01-25T09:25:44.830Z,180.00
2019-01-25T09:26:44.904Z,202.50
2019-01-25T09:27:44.901Z,157.50
2019-01-25T09:28:44.873Z,180.00
2019-01-25T09:29:44.848Z,180.00
2019-01-25T09:30:44.879Z,157.50
2019-01-25T09:31:44.914Z,202.50
2019-01-25T09:32:44.927Z,157.50
2019-01-25T09:33:44.847Z,157.50
2019-01-25T09:34:44.919Z,202.50
2019-01-25T09:35:44.852Z,180.00
2019-01-25T09:36:44.918Z,180.00
2019-01-25T09:37:44.855Z,180.00
2019-01-25T09:38:44.854Z,157.50
2019-01-25T09:39:44.923Z,157.50
2019-01-25T09:40:44.860Z,180.00
2019-01-25T09:41:44.925Z,202.50
2019-01-25T09:42:44.869Z,180.00
2019-01-25T09:43:44.921Z,202.50
2019-01-25T09:44:44.979Z,180.00
2019-01-25T09:45:44.859Z,157.50
2019-01-25T09:46:44.859Z,180.00
2019-01-25T09:47:44.921Z,157.50
2019-01-25T09:48:44.932Z,157.50
2019-01-25T09:49:44.929Z,180.00
2019-01-25T09:50:44.799Z,180.00
2019-01-25T09:51:44.797Z,180.00
2019-01-25T09:52:44.851Z,157.50
2019-01-25T09:53:44.795Z,157.50
2019-01-25T09:54:44.912Z,180.00
2019-01-25T09:55:44.865Z,180.00
2019-01-25T09:56:44.799Z,157.50
2019-01-25T09:57:44.885Z,180.00
2019-01-25T09:58:44.830Z,157.50
2019-01-25T09:59:44.911Z,135.00
2019-01-25T10:00:44.880Z,157.50
2019-01-25T10:01:44.947Z,202.50
2019-01-25T10:02:44.874Z,157.50
2019-01-25T10:03:44.886Z,180.00
2019-01-25T10:04:44.867Z,157.50
2019-01-25T10:05:44.942Z,180.00
2019-01-25T10:06:44.871Z,202.50
2019-01-25T10:07:44.942Z,180.00
2019-01-25T10:08:44.873Z,180.00
2019-01-25T10:09:44.952Z,157.50
2019-01-25T10:10:44.944Z,202.50
2019-01-25T10:11:44.953Z,202.50
2019-01-25T10:12:44.943Z,180.00
2019-01-25T10:13:44.954Z,180.00
2019-01-25T10:14:44.877Z,180.00
2019-01-25T10:15:44.946Z,112.50
2019-01-25T10:16:44.948Z,135.00
2019-01-25T10:17:44.882Z,157.50
2019-01-25T10:18:44.952Z,157.50
2019-01-25T10:19:44.949Z,180.00
2019-01-25T10:20:44.945Z,180.00
2019-01-25T10:21:44.953Z,180.00
2019-01-25T10:22:44.825Z,225.00
2019-01-25T10:23:44.896Z,202.50
2019-01-25T10:24:44.869Z,180.00
2019-01-25T10:25:44.909Z,135.00
2019-01-25T10:26:44.946Z,157.50
2019-01-25T10:27:44.942Z,180.00
2019-01-25T10:28:44.948Z,135.00
2019-01-25T10:29:44.949Z,225.00
2019-01-25T10:30:44.956Z,202.50
2019-01-25T10:31:44.968Z,202.50
2019-01-25T10:32:44.889Z,180.00
2019-01-25T10:33:44.893Z,202.50
2019-01-25T10:34:44.894Z,202.50
2019-01-25T10:35:44.964Z,180.00
2019-01-25T10:36:44.964Z,202.50
2019-01-25T10:37:44.895Z,202.50
2019-01-25T10:38:44.895Z,157.50
2019-01-25T10:39:44.975Z,90.00
2019-01-25T10:40:44.855Z,90.00
2019-01-25T10:41:44.831Z,180.00
2019-01-25T10:42:52.687Z,202.50
2019-01-25T10:43:44.866Z,157.50
2019-01-25T10:44:44.884Z,157.50
2019-01-25T10:45:44.895Z,157.50
2019-01-25T10:46:44.954Z,180.00
2019-01-25T10:47:44.932Z,157.50
2019-01-25T10:48:45.073Z,135.00
2019-01-25T10:49:44.900Z,135.00
2019-01-25T10:50:44.953Z,180.00
2019-01-25T10:51:44.959Z,180.00
2019-01-25T10:52:44.910Z,157.50
2019-01-25T10:53:44.844Z,202.50
2019-01-25T10:54:44.864Z,202.50
2019-01-25T10:55:44.931Z,157.50
2019-01-25T10:56:44.867Z,157.50
2019-01-25T10:57:44.914Z,180.00
2019-01-25T10:58:44.915Z,202.50
2019-01-25T10:59:44.911Z,157.50
2019-01-25T11:00:44.996Z,112.50
2019-01-25T11:01:44.980Z,157.50
2019-01-25T11:02:44.922Z,135.00
2019-01-25T11:03:46.601Z,157.50
2019-01-25T11:04:44.917Z,135.00
2019-01-25T11:05:44.986Z,157.50
2019-01-25T11:06:44.980Z,112.50
2019-01-25T11:07:44.929Z,112.50
2019-01-25T11:08:44.980Z,112.50
2019-01-25T11:09:44.986Z,112.50
2019-01-25T11:10:44.922Z,157.50
2019-01-25T11:11:44.985Z,157.50
2019-01-25T11:12:44.882Z,202.50
2019-01-25T11:13:44.926Z,90.00
2019-01-25T11:14:44.930Z,112.50
2019-01-25T11:15:45.000Z,135.00
2019-01-25T11:16:44.922Z,157.50
2019-01-25T11:17:44.919Z,112.50
2019-01-25T11:18:44.996Z,90.00
2019-01-25T11:19:44.925Z,112.50
2019-01-25T11:20:44.933Z,135.00
2019-01-25T11:21:44.912Z,90.00
2019-01-25T11:22:44.891Z,90.00
2019-01-25T11:23:44.984Z,157.50
2019-01-25T11:24:44.836Z,135.00
2019-01-25T11:25:44.938Z,157.50
2019-01-25T11:26:44.922Z,157.50
2019-01-25T11:27:44.858Z,112.50
2019-01-25T11:28:44.877Z,112.50
2019-01-25T11:29:44.859Z,112.50
2019-01-25T11:30:44.891Z,112.50
2019-01-25T11:31:44.900Z,135.00
2019-01-25T11:32:44.917Z,135.00
2019-01-25T11:33:44.903Z,90.00
2019-01-25T11:34:44.990Z,157.50
2019-01-25T11:35:44.937Z,135.00
2019-01-25T11:36:44.926Z,157.50
2019-01-25T11:37:44.936Z,180.00
2019-01-25T11:38:44.991Z,90.00
2019-01-25T11:39:49.220Z,90.00
2019-01-25T11:40:44.924Z,112.50
2019-01-25T11:41:44.992Z,135.00
2019-01-25T11:42:44.910Z,112.50
2019-01-25T11:43:44.930Z,112.50
2019-01-25T11:44:44.915Z,112.50
2019-01-25T11:45:44.939Z,90.00
2019-01-25T11:46:44.883Z,135.00
2019-01-25T11:47:44.929Z,135.00
2019-01-25T11:48:45.004Z,90.00
2019-01-25T11:49:44.999Z,135.00
2019-01-25T11:50:44.933Z,112.50
2019-01-25T11:51:45.011Z,112.50
2019-01-25T11:52:44.949Z,112.50
2019-01-25T11:53:44.946Z,112.50
2019-01-25T11:54:45.012Z,90.00
2019-01-25T11:55:44.958Z,135.00
2019-01-25T11:56:45.022Z,90.00
2019-01-25T11:57:44.954Z,112.50
2019-01-25T11:58:45.026Z,90.00
2019-01-25T11:59:44.951Z,112.50
2019-01-25T12:00:45.017Z,67.50
2019-01-25T12:01:45.020Z,112.50
2019-01-25T12:03:45.029Z,112.50
2019-01-25T12:04:45.024Z,135.00
2019-01-25T12:05:44.962Z,90.00
2019-01-25T12:06:45.025Z,90.00
2019-01-25T12:07:44.958Z,112.50
2019-01-25T12:08:45.039Z,202.50
2019-01-25T12:09:44.956Z,135.00
2019-01-25T12:10:44.958Z,90.00
2019-01-25T12:11:44.889Z,135.00
2019-01-25T12:12:44.882Z,135.00
2019-01-25T12:13:45.029Z,90.00
2019-01-25T12:14:44.947Z,157.50
2019-01-25T12:15:44.967Z,157.50
2019-01-25T12:16:44.947Z,157.50
2019-01-25T12:17:44.945Z,157.50
2019-01-25T12:18:44.948Z,180.00
2019-01-25T12:19:44.934Z,202.50
2019-01-25T12:20:44.971Z,135.00
2019-01-25T12:21:44.984Z,90.00
2019-01-25T12:22:44.967Z,112.50
2019-01-25T12:23:45.034Z,180.00
2019-01-25T12:24:45.038Z,157.50
2019-01-25T12:25:45.033Z,135.00
2019-01-25T12:26:45.128Z,180.00
2019-01-25T12:27:45.051Z,112.50
2019-01-25T12:28:44.974Z,157.50
2019-01-25T12:29:45.091Z,90.00
2019-01-25T12:30:45.032Z,67.50
2019-01-25T12:31:44.985Z,157.50
2019-01-25T12:32:44.988Z,112.50
2019-01-25T12:33:45.045Z,135.00
2019-01-25T12:34:45.037Z,112.50